sensor_id;sensor_type;location;lat;lon;timestamp;P1;durP1;ratioP1;P2;durP2;ratioP2
39698;SDS011;25372;50.582;12.250;2023-07-20T00:05:22;2.95;;;2.13;;
39698;SDS011;25372;50.582;12.250;2023-07-20T00:15:45;1.60;;;1.33;;
39698;SDS011;25372;50.582;12.250;2023-07-20T00:26:06;2.08;;;1.73;;
39698;SDS011;25372;50.582;12.250;2023-07-20T00:36:28;1.98;;;1.50;;
39698;SDS011;25372;50.582;12.250;2023-07-20T00:46:49;1.27;;;1.17;;
39698;SDS011;25372;50.582;12.250;2023-07-20T00:57:11;1.92;;;1.10;;
39698;SDS011;25372;50.582;12.250;2023-07-20T01:07:34;1.27;;;0.85;;
39698;SDS011;25372;50.582;12.250;2023-07-20T01:18:00;2.13;;;1.50;;
39698;SDS011;25372;50.582;12.250;2023-07-20T01:28:32;2.65;;;1.90;;
39698;SDS011;25372;50.582;12.250;2023-07-20T01:39:02;1.92;;;1.58;;
39698;SDS011;25372;50.582;12.250;2023-07-20T01:49:23;1.73;;;1.50;;
39698;SDS011;25372;50.582;12.250;2023-07-20T01:59:45;2.72;;;2.13;;
39698;SDS011;25372;50.582;12.250;2023-07-20T02:10:06;11.30;;;2.78;;
39698;SDS011;25372;50.582;12.250;2023-07-20T02:20:30;4.05;;;3.03;;
39698;SDS011;25372;50.582;12.250;2023-07-20T02:30:50;6.20;;;3.92;;
39698;SDS011;25372;50.582;12.250;2023-07-20T02:41:13;7.05;;;3.65;;
39698;SDS011;25372;50.582;12.250;2023-07-20T02:51:34;7.30;;;3.28;;
39698;SDS011;25372;50.582;12.250;2023-07-20T03:01:56;4.85;;;2.95;;
39698;SDS011;25372;50.582;12.250;2023-07-20T03:12:18;8.85;;;3.30;;
39698;SDS011;25372;50.582;12.250;2023-07-20T03:22:40;4.28;;;3.10;;
39698;SDS011;25372;50.582;12.250;2023-07-20T03:33:02;5.38;;;2.63;;
39698;SDS011;25372;50.582;12.250;2023-07-20T03:43:25;6.95;;;3.47;;
39698;SDS011;25372;50.582;12.250;2023-07-20T03:53:48;3.28;;;2.72;;
39698;SDS011;25372;50.582;12.250;2023-07-20T04:04:10;6.55;;;3.42;;
39698;SDS011;25372;50.582;12.250;2023-07-20T04:14:31;4.70;;;3.05;;
39698;SDS011;25372;50.582;12.250;2023-07-20T04:24:54;5.60;;;3.72;;
39698;SDS011;25372;50.582;12.250;2023-07-20T04:35:17;5.97;;;3.95;;
39698;SDS011;25372;50.582;12.250;2023-07-20T04:45:43;4.65;;;3.70;;
39698;SDS011;25372;50.582;12.250;2023-07-20T04:56:04;5.40;;;4.13;;
39698;SDS011;25372;50.582;12.250;2023-07-20T05:06:26;5.18;;;3.63;;
39698;SDS011;25372;50.582;12.250;2023-07-20T05:16:47;5.05;;;3.55;;
39698;SDS011;25372;50.582;12.250;2023-07-20T05:27:10;8.10;;;2.75;;
39698;SDS011;25372;50.582;12.250;2023-07-20T05:37:30;1.88;;;1.70;;
39698;SDS011;25372;50.582;12.250;2023-07-20T05:47:53;3.65;;;2.70;;
39698;SDS011;25372;50.582;12.250;2023-07-20T05:58:14;4.70;;;3.03;;
39698;SDS011;25372;50.582;12.250;2023-07-20T06:08:36;3.70;;;2.35;;
39698;SDS011;25372;50.582;12.250;2023-07-20T06:18:59;4.38;;;3.30;;
39698;SDS011;25372;50.582;12.250;2023-07-20T06:29:22;8.25;;;4.20;;
39698;SDS011;25372;50.582;12.250;2023-07-20T06:39:43;5.65;;;3.40;;
39698;SDS011;25372;50.582;12.250;2023-07-20T06:50:07;5.80;;;3.58;;
39698;SDS011;25372;50.582;12.250;2023-07-20T07:00:28;4.93;;;3.17;;
39698;SDS011;25372;50.582;12.250;2023-07-20T07:10:51;7.35;;;3.67;;
39698;SDS011;25372;50.582;12.250;2023-07-20T07:21:13;6.30;;;4.00;;
39698;SDS011;25372;50.582;12.250;2023-07-20T07:31:35;4.55;;;3.42;;
39698;SDS011;25372;50.582;12.250;2023-07-20T07:41:57;3.10;;;2.50;;
39698;SDS011;25372;50.582;12.250;2023-07-20T07:52:20;4.15;;;3.22;;
39698;SDS011;25372;50.582;12.250;2023-07-20T08:02:41;3.95;;;3.10;;
39698;SDS011;25372;50.582;12.250;2023-07-20T08:13:04;5.00;;;3.20;;
39698;SDS011;25372;50.582;12.250;2023-07-20T08:23:25;3.30;;;2.92;;
39698;SDS011;25372;50.582;12.250;2023-07-20T08:33:48;5.13;;;2.65;;
39698;SDS011;25372;50.582;12.250;2023-07-20T08:44:10;2.60;;;2.30;;
39698;SDS011;25372;50.582;12.250;2023-07-20T08:54:33;2.88;;;2.10;;
39698;SDS011;25372;50.582;12.250;2023-07-20T09:04:55;2.95;;;1.88;;
39698;SDS011;25372;50.582;12.250;2023-07-20T09:15:18;4.88;;;2.22;;
39698;SDS011;25372;50.582;12.250;2023-07-20T09:25:40;1.30;;;1.20;;
39698;SDS011;25372;50.582;12.250;2023-07-20T09:36:03;2.80;;;2.22;;
39698;SDS011;25372;50.582;12.250;2023-07-20T09:46:25;3.08;;;2.10;;
39698;SDS011;25372;50.582;12.250;2023-07-20T09:57:03;4.47;;;2.00;;
39698;SDS011;25372;50.582;12.250;2023-07-20T10:07:27;4.10;;;2.85;;
39698;SDS011;25372;50.582;12.250;2023-07-20T10:17:53;8.02;;;3.85;;
39698;SDS011;25372;50.582;12.250;2023-07-20T10:28:20;5.15;;;3.67;;
39698;SDS011;25372;50.582;12.250;2023-07-20T10:38:52;3.15;;;2.85;;
39698;SDS011;25372;50.582;12.250;2023-07-20T10:49:14;2.45;;;2.15;;
39698;SDS011;25372;50.582;12.250;2023-07-20T10:59:37;3.35;;;2.83;;
39698;SDS011;25372;50.582;12.250;2023-07-20T11:10:01;5.32;;;3.28;;
39698;SDS011;25372;50.582;12.250;2023-07-20T11:20:34;7.32;;;4.18;;
39698;SDS011;25372;50.582;12.250;2023-07-20T11:30:55;7.25;;;4.47;;
39698;SDS011;25372;50.582;12.250;2023-07-20T11:41:18;6.50;;;5.22;;
39698;SDS011;25372;50.582;12.250;2023-07-20T11:51:39;4.45;;;3.50;;
39698;SDS011;25372;50.582;12.250;2023-07-20T12:02:02;4.45;;;2.63;;
39698;SDS011;25372;50.582;12.250;2023-07-20T12:12:23;3.78;;;3.20;;
39698;SDS011;25372;50.582;12.250;2023-07-20T12:22:47;4.65;;;3.45;;
39698;SDS011;25372;50.582;12.250;2023-07-20T12:33:08;6.45;;;4.55;;
39698;SDS011;25372;50.582;12.250;2023-07-20T12:43:30;7.30;;;5.03;;
39698;SDS011;25372;50.582;12.250;2023-07-20T12:53:51;7.00;;;3.80;;
39698;SDS011;25372;50.582;12.250;2023-07-20T13:04:13;4.30;;;3.50;;
39698;SDS011;25372;50.582;12.250;2023-07-20T13:14:34;1.80;;;1.65;;
39698;SDS011;25372;50.582;12.250;2023-07-20T13:24:56;2.63;;;1.70;;
39698;SDS011;25372;50.582;12.250;2023-07-20T13:35:17;2.08;;;1.80;;
39698;SDS011;25372;50.582;12.250;2023-07-20T13:45:40;1.52;;;1.42;;
39698;SDS011;25372;50.582;12.250;2023-07-20T13:56:01;2.03;;;1.52;;
39698;SDS011;25372;50.582;12.250;2023-07-20T14:06:25;1.83;;;1.25;;
39698;SDS011;25372;50.582;12.250;2023-07-20T14:16:46;2.45;;;1.45;;
39698;SDS011;25372;50.582;12.250;2023-07-20T14:27:09;1.33;;;1.23;;
39698;SDS011;25372;50.582;12.250;2023-07-20T14:37:31;2.10;;;1.20;;
39698;SDS011;25372;50.582;12.250;2023-07-20T14:47:56;1.05;;;1.02;;
39698;SDS011;25372;50.582;12.250;2023-07-20T14:58:17;1.00;;;0.83;;
39698;SDS011;25372;50.582;12.250;2023-07-20T15:08:40;2.33;;;1.63;;
39698;SDS011;25372;50.582;12.250;2023-07-20T15:19:01;1.08;;;1.00;;
39698;SDS011;25372;50.582;12.250;2023-07-20T15:29:23;1.38;;;1.20;;
39698;SDS011;25372;50.582;12.250;2023-07-20T15:39:47;1.48;;;1.38;;
39698;SDS011;25372;50.582;12.250;2023-07-20T15:50:11;0.40;;;0.40;;
39698;SDS011;25372;50.582;12.250;2023-07-20T16:00:32;1.25;;;1.10;;
39698;SDS011;25372;50.582;12.250;2023-07-20T16:10:54;1.60;;;0.88;;
39698;SDS011;25372;50.582;12.250;2023-07-20T16:21:16;0.77;;;0.77;;
39698;SDS011;25372;50.582;12.250;2023-07-20T16:31:39;0.50;;;0.50;;
39698;SDS011;25372;50.582;12.250;2023-07-20T16:41:59;0.75;;;0.75;;
39698;SDS011;25372;50.582;12.250;2023-07-20T16:52:22;1.52;;;0.85;;
39698;SDS011;25372;50.582;12.250;2023-07-20T17:02:47;0.70;;;0.57;;
39698;SDS011;25372;50.582;12.250;2023-07-20T17:13:09;0.40;;;0.40;;
39698;SDS011;25372;50.582;12.250;2023-07-20T17:23:30;0.75;;;0.75;;
39698;SDS011;25372;50.582;12.250;2023-07-20T17:33:53;0.80;;;0.80;;
39698;SDS011;25372;50.582;12.250;2023-07-20T17:44:14;0.68;;;0.68;;
39698;SDS011;25372;50.582;12.250;2023-07-20T17:54:36;1.15;;;0.63;;
39698;SDS011;25372;50.582;12.250;2023-07-20T18:04:57;1.30;;;0.70;;
39698;SDS011;25372;50.582;12.250;2023-07-20T18:15:19;1.00;;;0.90;;
39698;SDS011;25372;50.582;12.250;2023-07-20T18:25:41;1.25;;;1.08;;
39698;SDS011;25372;50.582;12.250;2023-07-20T18:36:03;1.00;;;1.00;;
39698;SDS011;25372;50.582;12.250;2023-07-20T18:46:25;1.15;;;0.95;;
39698;SDS011;25372;50.582;12.250;2023-07-20T18:56:47;1.50;;;1.33;;
39698;SDS011;25372;50.582;12.250;2023-07-20T19:07:08;1.33;;;1.20;;
39698;SDS011;25372;50.582;12.250;2023-07-20T19:17:31;1.20;;;0.88;;
39698;SDS011;25372;50.582;12.250;2023-07-20T19:27:52;0.80;;;0.80;;
39698;SDS011;25372;50.582;12.250;2023-07-20T19:38:15;3.20;;;1.75;;
39698;SDS011;25372;50.582;12.250;2023-07-20T19:48:42;2.42;;;1.77;;
39698;SDS011;25372;50.582;12.250;2023-07-20T19:59:05;2.35;;;1.70;;
39698;SDS011;25372;50.582;12.250;2023-07-20T20:09:26;2.20;;;1.55;;
39698;SDS011;25372;50.582;12.250;2023-07-20T20:19:48;1.80;;;1.33;;
39698;SDS011;25372;50.582;12.250;2023-07-20T20:30:10;1.25;;;1.05;;
39698;SDS011;25372;50.582;12.250;2023-07-20T20:40:33;2.90;;;1.80;;
39698;SDS011;25372;50.582;12.250;2023-07-20T20:50:54;3.65;;;1.73;;
39698;SDS011;25372;50.582;12.250;2023-07-20T21:01:16;4.97;;;1.83;;
39698;SDS011;25372;50.582;12.250;2023-07-20T21:11:36;2.33;;;1.80;;
39698;SDS011;25372;50.582;12.250;2023-07-20T21:21:59;2.75;;;2.22;;
39698;SDS011;25372;50.582;12.250;2023-07-20T21:32:20;2.45;;;2.00;;
39698;SDS011;25372;50.582;12.250;2023-07-20T21:42:42;3.67;;;1.70;;
39698;SDS011;25372;50.582;12.250;2023-07-20T21:53:02;2.47;;;1.80;;
39698;SDS011;25372;50.582;12.250;2023-07-20T22:03:25;3.13;;;2.08;;
39698;SDS011;25372;50.582;12.250;2023-07-20T22:13:46;2.72;;;1.83;;
39698;SDS011;25372;50.582;12.250;2023-07-20T22:24:09;2.70;;;2.00;;
39698;SDS011;25372;50.582;12.250;2023-07-20T22:34:30;2.33;;;1.73;;
39698;SDS011;25372;50.582;12.250;2023-07-20T22:44:55;2.75;;;1.50;;
39698;SDS011;25372;50.582;12.250;2023-07-20T22:55:16;2.63;;;2.15;;
39698;SDS011;25372;50.582;12.250;2023-07-20T23:05:38;1.48;;;1.33;;
39698;SDS011;25372;50.582;12.250;2023-07-20T23:15:59;1.90;;;1.52;;
39698;SDS011;25372;50.582;12.250;2023-07-20T23:26:21;1.80;;;1.65;;
39698;SDS011;25372;50.582;12.250;2023-07-20T23:36:42;1.60;;;1.50;;
39698;SDS011;25372;50.582;12.250;2023-07-20T23:47:05;1.60;;;1.50;;
39698;SDS011;25372;50.582;12.250;2023-07-20T23:57:28;1.73;;;1.63;;
